Time;durP1;ratioP1;P1;durP2;ratioP2;P2;SDS_P1;SDS_P2;PMS_P1;PMS_P2;Temp;Humidity;BMP_temperature;BMP_pressure;BME280_temperature;BME280_humidity;BME280_pressure;Samples;Min_cycle;Max_cycle;Signal;HPM_P1;HPM_P2
2022/01/15 00:02:24;;;;;;;10.85;8.45;;;;;;;3.77;51.06;96332.69;4991831;28;20026;-61
2022/01/15 00:04:50;;;;;;;12.70;9.07;;;;;;;4.52;51.13;96454.81;4991483;28;20053;-61
2022/01/15 00:07:16;;;;;;;14.05;9.15;;;;;;;4.11;51.19;96352.06;4991938;28;20022;-61
2022/01/15 00:09:43;;;;;;;13.35;9.77;;;;;;;3.59;51.38;96309.94;4990549;28;20034;-61
2022/01/15 00:12:10;;;;;;;18.45;10.07;;;;;;;3.56;50.93;96270.13;4986396;28;20353;-61
2022/01/15 00:14:40;;;;;;;13.50;9.27;;;;;;;3.15;50.97;96239.53;4991319;28;20357;-61
2022/01/15 00:17:08;;;;;;;13.50;9.30;;;;;;;3.85;50.89;96334.16;4992104;28;20022;-61
2022/01/15 00:19:46;;;;;;;11.75;9.82;;;;;;;3.90;51.27;96389.56;4991315;28;20018;-62
2022/01/15 00:22:18;;;;;;;16.30;10.30;;;;;;;3.88;51.30;96339.75;4991263;28;20049;-62
2022/01/15 00:24:44;;;;;;;13.43;9.48;;;;;;;5.13;51.32;96545.66;4990585;28;20037;-63
2022/01/15 00:27:11;;;;;;;16.08;10.88;;;;;;;3.42;51.05;96276.69;5004739;28;20077;-62
2022/01/15 00:29:36;;;;;;;17.35;11.02;;;;;;;5.53;51.44;96643.28;4995155;28;20045;-61
2022/01/15 00:32:03;;;;;;;17.83;11.10;;;;;;;5.49;51.12;96602.53;4991087;28;20034;-62
2022/01/15 00:34:29;;;;;;;13.60;10.32;;;;;;;3.65;50.75;96355.59;4990940;28;20022;-60
2022/01/15 00:36:55;;;;;;;19.55;10.95;;;;;;;5.39;50.78;96644.56;4991147;28;20495;-62
2022/01/15 00:39:21;;;;;;;13.25;10.55;;;;;;;5.38;51.03;96632.41;4990484;28;20038;-62
2022/01/15 00:41:47;;;;;;;14.35;9.60;;;;;;;5.34;50.65;96626.00;4992333;28;20041;-60
2022/01/15 00:44:12;;;;;;;15.00;10.43;;;;;;;3.02;50.99;96274.72;4990611;28;20105;-61
2022/01/15 00:46:38;;;;;;;17.05;10.77;;;;;;;3.25;50.88;96280.00;4991145;28;20030;-60
2022/01/15 00:49:03;;;;;;;21.15;11.75;;;;;;;3.59;51.23;96323.09;4989395;28;20495;-61
2022/01/15 00:51:29;;;;;;;18.85;11.10;;;;;;;4.35;50.90;96481.91;4989707;28;20030;-60
2022/01/15 00:53:54;;;;;;;13.57;10.63;;;;;;;2.96;50.85;96265.13;4990422;28;20121;-61
2022/01/15 00:56:20;;;;;;;14.82;10.45;;;;;;;3.43;50.84;96318.56;4991977;28;20038;-61
2022/01/15 00:58:45;;;;;;;14.48;10.50;;;;;;;4.82;51.37;96566.16;4989370;28;20038;-60
2022/01/15 01:01:11;;;;;;;16.85;11.57;;;;;;;3.62;51.37;96341.03;4990606;28;20030;-61
2022/01/15 01:03:36;;;;;;;14.98;10.73;;;;;;;2.77;51.05;96209.28;4990392;28;20428;-61
2022/01/15 01:06:02;;;;;;;20.33;12.05;;;;;;;4.20;50.78;96441.22;4990775;28;20502;-61
2022/01/15 01:08:27;;;;;;;15.38;11.35;;;;;;;3.40;50.91;96334.78;4990297;28;20085;-61
2022/01/15 01:10:56;;;;;;;13.48;10.70;;;;;;;2.58;50.87;96217.25;4991217;28;20030;-60
2022/01/15 01:20:03;;;;;;;15.80;11.15;;;;;;;4.28;51.01;96468.03;4990251;28;20034;-60
2022/01/15 01:22:49;;;;;;;17.00;10.90;;;;;;;4.48;51.51;96511.66;4970353;28;20082;-61
2022/01/15 01:24:46;;;;;;;16.77;10.80;;;;;;;4.92;51.59;96639.38;4974822;28;20112;-61
2022/01/15 01:27:23;;;;;;;15.40;11.00;;;;;;;3.23;51.50;96320.72;4991697;28;20073;-61
2022/01/15 01:30:13;;;;;;;17.48;12.05;;;;;;;3.15;51.49;96311.31;4989690;28;20054;-61
2022/01/15 01:32:47;;;;;;;12.63;9.23;;;;;;;3.15;51.47;96344.72;4990329;28;20069;-60
2022/01/15 01:35:18;;;;;;;17.83;11.10;;;;;;;4.89;51.18;96609.00;4989887;28;20403;-60
2022/01/15 01:37:49;;;;;;;14.85;9.85;;;;;;;4.13;51.60;96470.34;4990299;28;20080;-60
2022/01/15 01:42:44;;;;;;;14.35;11.23;;;;;;;2.74;51.08;96238.63;4991725;28;20488;-62
2022/01/15 01:45:14;;;;;;;13.15;10.93;;;;;;;3.31;51.19;96341.41;4981979;28;20018;-61
2022/01/15 01:47:42;;;;;;;15.40;9.32;;;;;;;4.16;51.27;96475.94;4990215;28;20022;-60
2022/01/15 01:50:25;;;;;;;14.57;11.45;;;;;;;2.70;51.59;96284.75;4989651;28;20026;-61
2022/01/15 01:52:54;;;;;;;12.65;10.23;;;;;;;3.83;51.57;96421.22;4989998;28;20038;-62
2022/01/15 01:55:25;;;;;;;15.90;10.73;;;;;;;4.75;51.43;96575.19;4989313;28;20732;-60
2022/01/15 01:57:52;;;;;;;17.00;10.45;;;;;;;2.79;51.36;96278.16;4991481;28;20477;-61
2022/01/15 02:00:20;;;;;;;17.95;11.10;;;;;;;4.67;51.75;96569.25;4989493;28;20065;-60
2022/01/15 02:02:47;;;;;;;14.98;10.60;;;;;;;3.83;51.54;96452.81;4989943;28;20157;-60
2022/01/15 02:05:13;;;;;;;16.65;11.38;;;;;;;2.73;51.32;96285.13;4989754;28;20026;-61
2022/01/15 02:07:43;;;;;;;16.25;11.10;;;;;;;3.26;51.86;96357.06;4990037;28;20439;-60
2022/01/15 02:10:12;;;;;;;16.25;11.23;;;;;;;3.05;51.55;96295.31;4989114;28;20033;-60
2022/01/15 02:12:38;;;;;;;14.48;10.80;;;;;;;3.24;51.16;96373.06;4991245;28;20035;-60
2022/01/15 02:15:15;;;;;;;12.32;9.75;;;;;;;4.59;51.50;96539.81;4989320;28;20026;-62
2022/01/15 02:17:42;;;;;;;12.70;9.60;;;;;;;2.65;51.49;96263.63;4990121;28;20022;-60
2022/01/15 02:25:48;;;;;;;15.32;10.52;;;;;;;3.75;51.58;96434.75;4989350;28;20053;-60
2022/01/15 02:28:15;;;;;;;14.15;9.15;;;;;;;4.08;51.42;96492.09;4984248;28;20128;-60
2022/01/15 02:30:41;;;;;;;15.38;10.00;;;;;;;4.02;51.74;96471.16;4987969;28;20057;-60
2022/01/15 02:33:07;;;;;;;13.27;9.82;;;;;;;2.65;51.19;96250.50;4989927;28;20057;-61
2022/01/15 02:35:34;;;;;;;14.00;9.65;;;;;;;3.73;51.86;96421.00;4993404;28;20030;-61
2022/01/15 02:38:07;;;;;;;14.38;9.25;;;;;;;2.79;51.63;96265.81;4993536;28;20030;-60
2022/01/15 02:40:35;;;;;;;16.65;10.65;;;;;;;3.68;51.78;96449.03;4993159;28;20044;-60
2022/01/15 02:43:06;;;;;;;17.35;10.77;;;;;;;3.99;51.61;96485.56;4993888;28;20026;-61
2022/01/15 02:45:33;;;;;;;14.00;9.73;;;;;;;3.52;51.57;96388.16;4993124;28;20054;-60
2022/01/15 02:48:09;;;;;;;15.43;9.88;;;;;;;4.20;51.71;96514.97;4992223;28;20034;-60
2022/01/15 02:50:35;;;;;;;13.27;9.95;;;;;;;4.32;51.53;96513.94;4992992;28;20034;-61
2022/01/15 02:53:02;;;;;;;14.00;10.00;;;;;;;3.57;51.81;96390.13;4992851;28;20421;-60
2022/01/15 02:55:27;;;;;;;16.08;9.70;;;;;;;4.27;51.78;96507.78;4992648;28;20037;-61
2022/01/15 02:57:53;;;;;;;12.80;9.75;;;;;;;4.11;51.73;96486.38;4995830;28;20026;-61
2022/01/15 03:00:18;;;;;;;14.15;9.05;;;;;;;3.56;51.53;96394.59;4992714;28;20526;-61
2022/01/15 03:02:44;;;;;;;12.32;9.35;;;;;;;4.26;52.22;96506.19;4992998;28;20026;-61
2022/01/15 03:05:10;;;;;;;15.98;9.60;;;;;;;3.55;51.74;96384.31;4992770;28;20027;-61
2022/01/15 03:07:36;;;;;;;13.13;9.57;;;;;;;3.54;52.04;96404.56;4992919;28;20370;-61
2022/01/15 03:10:03;;;;;;;19.40;10.40;;;;;;;4.16;51.74;96488.31;4991004;28;20078;-60
2022/01/15 03:12:28;;;;;;;17.67;11.10;;;;;;;3.55;51.59;96414.03;4994098;28;20028;-60
2022/01/15 03:14:59;;;;;;;17.27;11.65;;;;;;;4.11;51.81;96485.56;4992364;28;20030;-60
2022/01/15 03:17:25;;;;;;;15.20;11.27;;;;;;;3.71;51.54;96430.19;4992802;28;20018;-61
2022/01/15 03:19:50;;;;;;;15.13;11.98;;;;;;;4.04;51.70;96477.78;4992542;28;20639;-60
2022/01/15 03:22:15;;;;;;;13.40;10.35;;;;;;;3.85;51.65;96453.41;4992828;28;20030;-61
2022/01/15 03:24:41;;;;;;;17.10;10.60;;;;;;;0.77;52.11;96012.03;4992660;28;20057;-60
2022/01/15 03:27:06;;;;;;;14.85;10.48;;;;;;;3.79;51.96;96443.00;4992316;28;20034;-60
2022/01/15 03:29:32;;;;;;;14.70;9.60;;;;;;;3.51;51.82;96393.66;4993417;28;20113;-61
2022/01/15 03:31:58;;;;;;;13.05;10.55;;;;;;;3.80;51.70;96437.50;4992617;28;20027;-60
2022/01/15 03:34:23;;;;;;;14.48;11.18;;;;;;;4.04;51.67;96490.94;4992330;28;20039;-61
2022/01/15 03:36:49;;;;;;;19.35;11.75;;;;;;;4.03;52.05;96457.75;4992569;28;20047;-61
2022/01/15 03:39:15;;;;;;;16.85;10.98;;;;;;;3.39;52.10;96380.53;4992155;28;20029;-60
2022/01/15 03:41:40;;;;;;;17.00;11.65;;;;;;;4.05;51.92;96460.16;4993431;28;20026;-60
2022/01/15 03:44:06;;;;;;;17.20;11.60;;;;;;;3.46;52.01;96359.34;4991832;28;20137;-60
2022/01/15 03:46:31;;;;;;;20.40;11.48;;;;;;;3.77;51.88;96426.63;4991466;28;20022;-61
2022/01/15 03:48:57;;;;;;;14.75;10.90;;;;;;;3.53;52.06;96381.91;4990919;28;20044;-60
2022/01/15 03:51:22;;;;;;;17.75;10.90;;;;;;;2.48;52.07;96224.88;4991533;28;20030;-61
2022/01/15 03:53:47;;;;;;;16.02;11.27;;;;;;;3.86;52.29;96431.31;4990541;28;20077;-61
2022/01/15 03:56:13;;;;;;;22.13;12.18;;;;;;;3.13;52.00;96327.34;4991627;28;20033;-61
2022/01/15 03:58:38;;;;;;;16.77;12.55;;;;;;;3.38;52.28;96371.03;4993720;28;20018;-60
2022/01/15 04:01:03;;;;;;;22.85;14.15;;;;;;;3.91;52.30;96441.16;4991532;28;20109;-61
2022/01/15 04:03:29;;;;;;;19.60;12.13;;;;;;;3.81;52.45;96436.47;4990796;28;20027;-61
2022/01/15 04:05:54;;;;;;;23.63;12.90;;;;;;;3.76;51.82;96427.66;4991707;28;20064;-60
2022/01/15 04:08:20;;;;;;;22.98;13.30;;;;;;;3.80;51.77;96432.25;4992044;28;20485;-61
2022/01/15 04:10:45;;;;;;;20.13;12.15;;;;;;;3.86;52.16;96436.59;4990824;28;20485;-60
2022/01/15 04:13:15;;;;;;;19.75;12.20;;;;;;;3.10;51.44;96312.00;4993157;28;20026;-60
2022/01/15 04:15:40;;;;;;;19.13;12.18;;;;;;;3.46;51.70;96378.56;4991329;28;20026;-60
2022/01/15 04:18:06;;;;;;;19.63;11.75;;;;;;;3.69;51.46;96430.41;4991686;28;20088;-60
2022/01/15 04:20:31;;;;;;;20.52;12.50;;;;;;;3.32;51.76;96392.97;4991353;28;20065;-61
2022/01/15 04:22:57;;;;;;;19.13;12.82;;;;;;;3.88;51.81;96473.19;4991835;28;20447;-60
2022/01/15 04:25:22;;;;;;;21.58;12.77;;;;;;;3.43;51.97;96384.31;4990954;28;20030;-61
2022/01/15 04:27:48;;;;;;;19.73;12.30;;;;;;;3.30;51.57;96368.72;4992992;28;20089;-60
2022/01/15 04:30:15;;;;;;;18.38;12.18;;;;;;;3.62;51.82;96433.13;4990998;28;20033;-60
2022/01/15 04:32:41;;;;;;;22.52;13.73;;;;;;;3.23;51.77;96363.59;4990004;28;20030;-61
2022/01/15 04:35:07;;;;;;;17.83;12.73;;;;;;;3.70;52.00;96418.06;4991159;28;20072;-61
2022/01/15 04:37:39;;;;;;;18.58;11.80;;;;;;;3.92;51.63;96469.06;5004868;23;20092;-69
2022/01/15 04:40:07;;;;;;;16.45;11.70;;;;;;;3.81;52.00;96447.00;4989708;28;20558;-69
2022/01/15 04:42:32;;;;;;;20.10;12.07;;;;;;;3.25;51.46;96368.59;4991706;28;20122;-69
2022/01/15 04:44:58;;;;;;;15.52;10.40;;;;;;;3.88;51.85;96471.38;4992305;28;20098;-69
2022/01/15 04:47:24;;;;;;;16.67;11.20;;;;;;;3.87;51.78;96467.13;4991106;28;20109;-69
2022/01/15 04:49:50;;;;;;;18.15;10.57;;;;;;;3.23;51.46;96365.41;4990304;28;20124;-72
2022/01/15 04:52:15;;;;;;;15.15;10.82;;;;;;;3.22;51.66;96369.84;4991645;28;20165;-69
2022/01/15 04:54:41;;;;;;;16.70;11.88;;;;;;;3.18;51.41;96339.00;4990343;28;20030;-69
2022/01/15 04:57:06;;;;;;;14.93;11.02;;;;;;;3.25;51.25;96368.59;4991315;28;20105;-69
2022/01/15 04:59:32;;;;;;;17.63;11.50;;;;;;;3.71;51.62;96435.44;4993234;28;20031;-70
2022/01/15 05:01:57;;;;;;;17.65;11.75;;;;;;;3.45;51.39;96398.00;4992097;28;20602;-71
2022/01/15 05:04:22;;;;;;;16.33;11.13;;;;;;;3.24;51.23;96359.13;4991129;28;20828;-69
2022/01/15 05:06:48;;;;;;;14.25;10.15;;;;;;;3.61;51.63;96425.47;4990066;28;20026;-73
2022/01/15 05:09:13;;;;;;;17.60;10.68;;;;;;;3.44;51.13;96388.53;4989549;28;20468;-69
2022/01/15 05:11:47;;;;;;;15.88;11.43;;;;;;;3.83;51.45;96465.19;4991068;28;20027;-69
2022/01/15 05:14:15;;;;;;;18.90;12.02;;;;;;;3.67;51.66;96440.34;4983788;28;20094;-69
2022/01/15 05:16:41;;;;;;;17.17;11.90;;;;;;;3.60;51.87;96424.69;4991325;28;20030;-68
2022/01/15 05:19:06;;;;;;;18.35;11.43;;;;;;;3.28;51.61;96366.34;4990989;28;20587;-69
2022/01/15 05:21:32;;;;;;;13.52;9.68;;;;;;;3.03;51.77;96373.63;4991476;28;20506;-70
2022/01/15 05:23:58;;;;;;;15.05;11.38;;;;;;;3.00;51.81;96332.78;4990938;28;20046;-69
2022/01/15 05:26:23;;;;;;;15.07;10.50;;;;;;;3.76;51.83;96459.25;4990401;28;20026;-71
2022/01/15 05:28:48;;;;;;;17.38;11.32;;;;;;;3.71;51.61;96449.41;4992078;28;20026;-70
2022/01/15 05:31:14;;;;;;;16.92;11.43;;;;;;;3.36;51.99;96389.66;4988964;28;20124;-70
2022/01/15 05:33:39;;;;;;;15.65;11.65;;;;;;;3.74;51.48;96442.88;4990513;28;20034;-69
2022/01/15 05:36:05;;;;;;;17.92;10.98;;;;;;;3.86;51.57;96456.84;4990405;28;20565;-69
2022/01/15 05:38:30;;;;;;;14.52;11.05;;;;;;;3.10;51.83;96330.41;4990549;28;20036;-70
2022/01/15 05:40:55;;;;;;;20.10;11.55;;;;;;;3.90;51.94;96437.72;4989869;28;20022;-72
2022/01/15 05:43:21;;;;;;;15.98;10.75;;;;;;;3.31;51.47;96355.34;4990564;28;20105;-72
2022/01/15 05:45:46;;;;;;;14.10;11.32;;;;;;;3.25;51.44;96355.47;4990035;28;20022;-70
2022/01/15 05:48:12;;;;;;;14.80;10.68;;;;;;;3.83;51.37;96454.66;4990664;28;20101;-72
2022/01/15 05:50:37;;;;;;;17.45;11.00;;;;;;;3.15;51.39;96390.19;4988742;28;20072;-69
2022/01/15 05:53:03;;;;;;;13.18;9.77;;;;;;;3.22;51.24;96388.25;4990615;28;20032;-71
2022/01/15 05:55:28;;;;;;;13.27;10.60;;;;;;;3.38;51.92;96398.13;4990007;28;20508;-70
2022/01/15 05:57:54;;;;;;;14.93;10.55;;;;;;;3.70;51.40;96449.63;4991484;28;20500;-70
2022/01/15 06:00:20;;;;;;;13.95;10.27;;;;;;;3.25;51.85;96381.75;4988503;28;20642;-69
2022/01/15 06:02:45;;;;;;;14.68;10.48;;;;;;;3.59;51.75;96424.91;4989134;28;20026;-69
2022/01/15 06:05:11;;;;;;;13.90;9.57;;;;;;;3.03;51.84;96378.88;4989958;28;20061;-71
2022/01/15 06:07:36;;;;;;;15.80;11.23;;;;;;;3.20;51.77;96369.28;4990169;28;20026;-69
2022/01/15 06:10:03;;;;;;;14.48;11.07;;;;;;;3.63;51.76;96447.09;4992950;28;20714;-71
2022/01/15 06:12:31;;;;;;;15.52;10.27;;;;;;;3.83;51.79;96468.63;4993882;28;20040;-70
2022/01/15 06:14:57;;;;;;;17.05;11.50;;;;;;;3.16;52.59;96378.66;5000761;28;20022;-69
2022/01/15 06:17:23;;;;;;;16.08;10.60;;;;;;;3.84;51.61;96466.81;4994028;28;20516;-72
2022/01/15 06:19:48;;;;;;;17.02;11.45;;;;;;;3.18;51.42;96366.09;4993897;28;20038;-69
2022/01/15 06:22:13;;;;;;;19.25;12.55;;;;;;;2.94;52.43;96390.72;4994204;28;20023;-70
2022/01/15 06:24:39;;;;;;;21.15;12.75;;;;;;;2.77;53.11;96359.03;4993683;28;20065;-70
2022/01/15 06:27:04;;;;;;;24.25;13.68;;;;;;;2.58;53.54;96343.31;4993664;28;20058;-70
2022/01/15 06:29:30;;;;;;;24.90;14.07;;;;;;;2.87;54.69;96427.63;4994668;28;20034;-72
2022/01/15 06:31:55;;;;;;;19.95;14.00;;;;;;;2.45;56.52;96461.66;4992901;28;20030;-71
2022/01/15 06:34:21;;;;;;;18.73;13.48;;;;;;;2.65;56.85;96473.78;4994395;28;20018;-71
2022/01/15 06:36:47;;;;;;;19.98;14.27;;;;;;;2.15;56.92;96419.63;4993008;28;20435;-71
2022/01/15 06:39:12;;;;;;;20.52;13.10;;;;;;;1.78;59.49;96473.88;4993420;28;20032;-71
2022/01/15 06:41:38;;;;;;;26.63;14.52;;;;;;;2.19;57.84;96451.47;4993242;28;20026;-71
2022/01/15 06:44:03;;;;;;;23.80;16.70;;;;;;;2.41;56.57;96433.47;4994601;28;20022;-71
2022/01/15 06:46:29;;;;;;;23.98;15.32;;;;;;;2.66;56.69;96455.16;4991955;28;20018;-71
2022/01/15 06:48:55;;;;;;;25.90;15.35;;;;;;;1.62;57.18;96400.97;4993556;28;20026;-71
2022/01/15 06:51:20;;;;;;;23.40;12.60;;;;;;;2.18;57.98;96489.25;4993445;28;20520;-71
2022/01/15 06:53:46;;;;;;;21.55;13.20;;;;;;;1.78;57.80;96432.69;4993242;28;20018;-70
2022/01/15 06:56:11;;;;;;;21.95;14.05;;;;;;;2.28;56.81;96431.78;4992860;28;20027;-71
2022/01/15 06:58:37;;;;;;;23.60;15.23;;;;;;;2.45;55.46;96426.72;4992581;28;20026;-71
2022/01/15 07:01:03;;;;;;;28.05;15.93;;;;;;;2.29;55.49;96438.63;4993218;28;20464;-71
2022/01/15 07:03:28;;;;;;;30.20;17.80;;;;;;;2.19;56.19;96447.03;4991799;28;20384;-71
2022/01/15 07:05:53;;;;;;;27.08;15.82;;;;;;;1.74;57.98;96460.41;4991750;28;20165;-73
2022/01/15 07:08:19;;;;;;;25.17;16.77;;;;;;;1.62;58.68;96461.31;4993133;28;20473;-71
2022/01/15 07:10:45;;;;;;;29.60;17.13;;;;;;;2.03;57.35;96466.78;4992728;28;20407;-71
2022/01/15 07:13:10;;;;;;;30.23;18.17;;;;;;;1.66;58.63;96459.88;4993848;28;20041;-71
2022/01/15 07:15:36;;;;;;;28.30;18.38;;;;;;;1.46;57.87;96374.31;4992830;28;20030;-71
2022/01/15 07:18:02;;;;;;;34.83;19.60;;;;;;;2.58;56.90;96492.25;4991782;28;20041;-71
2022/01/15 07:20:28;;;;;;;33.22;19.80;;;;;;;2.28;56.68;96437.03;4992746;28;20038;-70
2022/01/15 07:22:54;;;;;;;32.50;18.30;;;;;;;2.47;57.05;96483.28;4992890;28;20062;-70
2022/01/15 07:25:20;;;;;;;28.98;18.05;;;;;;;2.40;56.94;96482.53;4992486;28;20117;-72
2022/01/15 07:27:46;;;;;;;31.75;19.30;;;;;;;2.59;56.40;96454.44;4993736;28;20075;-71
2022/01/15 07:30:13;;;;;;;32.28;18.25;;;;;;;1.81;56.92;96424.41;4990726;28;20085;-70
2022/01/15 07:32:40;;;;;;;29.92;17.75;;;;;;;2.31;56.58;96470.75;4992484;28;20177;-70
2022/01/15 07:35:07;;;;;;;25.25;17.08;;;;;;;2.69;55.88;96483.63;4992416;28;20026;-71
2022/01/15 07:37:34;;;;;;;24.70;16.85;;;;;;;3.19;55.85;96495.72;4992517;28;20038;-70
2022/01/15 07:40:00;;;;;;;33.92;20.95;;;;;;;3.30;55.04;96437.09;4992179;28;20022;-71
2022/01/15 07:42:27;;;;;;;26.15;16.52;;;;;;;3.15;54.68;96399.91;4991935;28;20511;-71
2022/01/15 07:44:53;;;;;;;34.65;18.77;;;;;;;4.32;53.94;96476.28;4992089;28;20046;-71
2022/01/15 07:47:18;;;;;;;30.52;17.73;;;;;;;4.53;53.41;96454.59;4990899;28;20409;-71
2022/01/15 07:49:45;;;;;;;34.58;19.05;;;;;;;4.75;52.92;96472.41;4990732;28;20027;-71
2022/01/15 07:52:10;;;;;;;26.45;16.77;;;;;;;4.98;52.32;96474.16;4992030;28;20533;-70
2022/01/15 07:54:36;;;;;;;49.40;24.45;;;;;;;4.99;52.58;96438.84;4992060;28;20118;-71
2022/01/15 07:57:02;;;;;;;49.03;23.83;;;;;;;5.50;52.71;96476.66;4991788;28;20436;-72
2022/01/15 07:59:28;;;;;;;31.52;18.55;;;;;;;5.10;52.30;96380.75;4992199;28;20484;-71
2022/01/15 08:01:54;;;;;;;35.55;19.60;;;;;;;5.57;51.61;96419.22;4991837;28;20030;-71
2022/01/15 08:04:20;;;;;;;32.40;19.23;;;;;;;5.88;51.23;96431.06;4992009;28;20030;-71
2022/01/15 08:06:45;;;;;;;30.45;18.73;;;;;;;5.99;50.39;96427.56;4990748;28;20035;-71
2022/01/15 08:09:10;;;;;;;29.02;18.02;;;;;;;6.15;50.13;96421.44;4990415;28;20046;-71
2022/01/15 08:11:36;;;;;;;39.63;21.55;;;;;;;6.51;50.20;96450.97;4990369;28;20026;-71
2022/01/15 08:14:02;;;;;;;52.80;24.98;;;;;;;6.63;49.48;96456.94;4992002;28;20038;-71
2022/01/15 08:16:27;;;;;;;33.30;20.27;;;;;;;6.66;49.97;96458.28;4991819;28;20464;-71
2022/01/15 08:18:53;;;;;;;30.58;17.35;;;;;;;6.65;49.21;96425.72;4990546;28;20027;-71
2022/01/15 08:21:19;;;;;;;33.55;19.17;;;;;;;6.81;48.76;96439.13;4991789;28;20085;-71
2022/01/15 08:23:45;;;;;;;25.05;16.95;;;;;;;6.93;48.32;96439.81;4991766;28;20113;-71
2022/01/15 08:26:10;;;;;;;40.85;21.17;;;;;;;6.77;48.15;96429.06;4990089;28;20113;-70
2022/01/15 08:28:39;;;;;;;42.78;23.65;;;;;;;7.08;48.58;96439.97;4992176;28;20036;-70
2022/01/15 08:31:06;;;;;;;30.85;19.45;;;;;;;6.99;48.35;96409.72;4989218;28;20455;-70
2022/01/15 08:33:31;;;;;;;32.35;19.15;;;;;;;7.10;48.00;96413.25;4990322;28;20121;-71
2022/01/15 08:35:57;;;;;;;28.92;18.90;;;;;;;7.38;48.02;96428.06;4991178;28;20147;-71
2022/01/15 08:38:22;;;;;;;29.33;18.42;;;;;;;7.37;46.90;96400.00;4991830;28;20037;-71
2022/01/15 08:40:48;;;;;;;26.15;18.35;;;;;;;7.76;47.20;96427.84;4991246;28;20036;-72
2022/01/15 08:43:14;;;;;;;31.02;19.45;;;;;;;7.73;46.93;96428.38;4991070;28;20030;-71
2022/01/15 08:45:40;;;;;;;36.28;20.90;;;;;;;8.00;46.86;96422.19;4991275;28;20101;-71
2022/01/15 08:48:06;;;;;;;29.05;19.65;;;;;;;7.82;46.07;96371.19;4991183;28;20408;-69
2022/01/15 08:50:31;;;;;;;30.83;20.15;;;;;;;7.91;46.45;96397.22;4991152;28;20503;-70
2022/01/15 08:52:57;;;;;;;23.25;18.23;;;;;;;8.15;45.98;96405.56;4989927;28;20056;-70
2022/01/15 08:55:28;;;;;;;28.58;19.77;;;;;;;8.28;46.03;96421.78;4991326;28;20109;-69
2022/01/15 08:57:54;;;;;;;31.85;20.13;;;;;;;7.79;46.78;96414.09;4989119;28;20030;-67
2022/01/15 09:00:19;;;;;;;42.55;23.55;;;;;;;7.90;46.17;96400.91;4990753;28;20029;-63
2022/01/15 09:02:45;;;;;;;30.10;19.55;;;;;;;7.84;47.20;96397.44;4990877;28;20026;-63
2022/01/15 09:05:11;;;;;;;28.40;19.25;;;;;;;7.92;46.66;96418.16;4989242;28;20089;-66
2022/01/15 09:07:36;;;;;;;26.33;18.83;;;;;;;7.77;46.97;96397.66;4990739;28;20408;-65
2022/01/15 09:10:03;;;;;;;28.08;18.25;;;;;;;7.74;47.02;96402.69;4990155;28;20046;-65
2022/01/15 09:12:28;;;;;;;29.50;19.27;;;;;;;7.48;47.49;96399.84;4988441;28;20054;-64
2022/01/15 09:14:58;;;;;;;26.95;19.15;;;;;;;7.79;47.34;96403.50;4989774;28;20050;-64
2022/01/15 09:17:24;;;;;;;27.85;18.90;;;;;;;8.01;46.72;96405.22;4989294;28;20027;-64
2022/01/15 09:19:50;;;;;;;22.65;17.15;;;;;;;7.95;46.80;96393.81;4988960;28;20506;-73
2022/01/15 09:22:15;;;;;;;22.52;17.92;;;;;;;7.94;46.11;96412.59;4990540;28;20054;-71
2022/01/15 09:24:45;;;;;;;19.60;16.83;;;;;;;7.76;46.49;96382.00;4989182;28;20019;-71
2022/01/15 09:30:12;;;;;;;26.45;19.55;;;;;;;7.51;46.46;96370.19;4989389;28;20034;-70
2022/01/15 09:32:42;;;;;;;26.48;19.70;;;;;;;7.40;46.97;96397.66;4989586;28;20073;-68
2022/01/15 09:35:08;;;;;;;27.98;20.33;;;;;;;7.39;47.10;96396.06;4979341;28;20408;-70
2022/01/15 09:37:34;;;;;;;26.52;20.42;;;;;;;7.46;47.97;96414.38;4978435;28;20031;-65
2022/01/15 09:39:59;;;;;;;30.45;22.45;;;;;;;7.45;47.53;96402.19;4972406;28;20029;-69
2022/01/15 09:42:26;;;;;;;27.58;19.60;;;;;;;7.33;48.00;96367.94;4977581;28;20451;-66
2022/01/15 09:44:54;;;;;;;24.45;17.60;;;;;;;7.44;48.09;96382.06;4992082;28;20038;-67
2022/01/15 09:47:22;;;;;;;24.67;18.50;;;;;;;7.45;47.84;96386.31;4988720;28;20027;-71
2022/01/15 09:49:48;;;;;;;20.35;17.00;;;;;;;7.59;48.18;96408.66;4989724;28;20042;-68
2022/01/15 09:52:15;;;;;;;27.38;19.17;;;;;;;7.51;48.47;96380.00;4988815;28;20034;-70
2022/01/15 09:54:40;;;;;;;27.73;20.92;;;;;;;7.62;48.16;96384.28;4989631;28;20027;-69
2022/01/15 09:57:06;;;;;;;26.95;21.40;;;;;;;7.70;47.85;96389.13;4989602;28;20034;-67
2022/01/15 09:59:32;;;;;;;30.63;21.77;;;;;;;7.71;48.63;96389.94;4989566;28;20485;-66
2022/01/15 10:02:02;;;;;;;25.10;20.30;;;;;;;7.60;48.54;96372.38;4990134;28;20022;-67
2022/01/15 10:04:32;;;;;;;26.42;20.35;;;;;;;7.74;48.95;96384.94;4991012;28;20026;-69
2022/01/15 10:07:22;;;;;;;24.30;19.58;;;;;;;7.70;48.46;96389.13;4988990;28;20112;-67
2022/01/15 10:09:49;;;;;;;27.80;20.80;;;;;;;7.60;48.92;96389.06;4989990;28;20365;-65
2022/01/15 10:12:31;;;;;;;26.30;21.25;;;;;;;7.59;48.93;96382.19;4989699;28;20031;-66
2022/01/15 10:15:03;;;;;;;29.25;22.42;;;;;;;7.06;50.23;96338.88;4991001;28;20018;-66
2022/01/15 10:17:33;;;;;;;28.52;20.75;;;;;;;7.47;49.85;96347.94;4990126;28;20029;-65
2022/01/15 10:20:00;;;;;;;30.40;23.27;;;;;;;7.81;49.58;96377.53;4989567;28;20025;-64
2022/01/15 10:22:27;;;;;;;30.60;22.80;;;;;;;7.68;49.28;96363.97;4989705;28;20189;-65
2022/01/15 10:25:01;;;;;;;29.70;22.23;;;;;;;7.69;49.63;96376.94;4989477;28;20018;-65
2022/01/15 10:27:30;;;;;;;24.40;18.85;;;;;;;7.24;50.06;96327.13;4989238;28;20167;-72
2022/01/15 10:30:01;;;;;;;25.35;19.95;;;;;;;7.38;49.39;96346.81;4986536;28;20042;-68
2022/01/15 10:32:30;;;;;;;25.48;20.02;;;;;;;7.23;49.96;96333.47;4989307;28;20097;-68
2022/01/15 10:34:56;;;;;;;25.75;19.67;;;;;;;7.57;49.43;96323.38;4989467;28;20034;-67
2022/01/15 10:37:25;;;;;;;27.52;20.88;;;;;;;7.99;48.80;96365.75;4989377;28;20045;-67
2022/01/15 10:39:58;;;;;;;25.02;20.40;;;;;;;6.89;49.02;96192.72;5001854;23;20144;-63
2022/01/15 10:42:24;;;;;;;27.63;20.73;;;;;;;7.47;49.06;96365.66;4989302;28;20022;-62
2022/01/15 10:44:52;;;;;;;25.77;20.38;;;;;;;6.54;50.71;96301.63;4989251;28;20034;-61
2022/01/15 10:47:19;;;;;;;28.10;21.75;;;;;;;7.26;49.48;96360.19;4989445;28;20026;-61
2022/01/15 10:49:45;;;;;;;29.42;23.08;;;;;;;6.16;50.32;96224.09;4987996;28;20138;-63
2022/01/15 10:52:13;;;;;;;34.03;24.10;;;;;;;6.36;50.92;96237.50;4989276;28;20035;-63
2022/01/15 10:54:54;;;;;;;37.75;26.20;;;;;;;6.62;51.78;96344.28;4990084;28;20543;-62
2022/01/15 10:57:22;;;;;;;37.00;25.85;;;;;;;7.12;51.24;96351.13;4993074;28;20041;-63
2022/01/15 11:00:19;;;;;;;34.28;25.70;;;;;;;6.73;50.81;96264.00;4994029;28;20026;-63
2022/01/15 11:02:58;;;;;;;40.97;27.35;;;;;;;6.92;50.39;96263.66;4977155;28;20639;-63
2022/01/15 11:05:32;;;;;;;39.15;26.17;;;;;;;7.55;48.82;96354.59;4992637;28;20038;-66
2022/01/15 11:08:17;;;;;;;39.72;28.25;;;;;;;7.04;49.16;96266.91;4992959;28;20030;-62
2022/01/15 11:10:45;;;;;;;41.75;26.42;;;;;;;7.40;49.24;96304.19;4992149;28;20034;-62
2022/01/15 11:13:15;;;;;;;42.45;28.90;;;;;;;7.21;48.03;96142.38;4992406;28;20691;-63
2022/01/15 11:15:43;;;;;;;38.83;27.67;;;;;;;7.92;47.22;96243.28;4990909;28;20097;-61
2022/01/15 11:18:14;;;;;;;43.15;28.33;;;;;;;6.74;46.49;96066.50;4973356;28;20122;-62
2022/01/15 11:20:45;;;;;;;40.03;28.50;;;;;;;7.09;46.31;96076.47;4971490;28;20022;-62
2022/01/15 11:23:11;;;;;;;43.45;29.13;;;;;;;7.71;45.94;96117.94;4973181;28;20049;-62
2022/01/15 11:25:37;;;;;;;40.15;25.40;;;;;;;8.33;45.09;96209.75;4972847;28;20077;-62
2022/01/15 11:28:04;;;;;;;39.85;26.52;;;;;;;7.84;44.83;96114.00;4981334;28;20045;-62
2022/01/15 11:30:31;;;;;;;33.53;23.33;;;;;;;8.49;44.58;96194.66;4993382;28;20540;-62
2022/01/15 11:32:57;;;;;;;34.60;22.73;;;;;;;9.09;44.99;96336.38;4992182;28;20030;-62
2022/01/15 11:35:37;;;;;;;35.92;24.23;;;;;;;8.45;44.56;96192.84;4992326;28;20096;-63
2022/01/15 11:38:02;;;;;;;31.90;22.25;;;;;;;7.40;45.55;96042.16;4992681;28;20038;-63
2022/01/15 11:40:48;;;;;;;35.15;20.67;;;;;;;7.76;45.34;96054.41;4990702;28;20034;-62
2022/01/15 11:43:40;;;;;;;34.33;22.83;;;;;;;8.37;44.77;96124.44;4992059;28;20427;-63
2022/01/15 11:46:41;;;;;;;30.13;20.65;;;;;;;8.51;44.69;96144.84;4984233;28;20113;-63